Terminal Aerodrome Forecast
Issued by NWS

Home | Current Version | Previous Version | Text Only | Print | Product List | Glossary On
Versions: 1 2 3 4 5 6 7 8 9 10 11 12 13 14 15 16 17 18 19 20 21 22 23 24 25 26 27 28 29 30 31 32 33 34 35 36 37
000
FTUS43 KDLH 311700
TAFHIB
TAF
KHIB 311733Z 3118/0118 14015G23KT P6SM SCT015 BKN050
     FM312000 16014G22KT P6SM VCSH SCT015 BKN050
     FM312300 17009KT P6SM -SHRA BKN050
      TEMPO 0100/0103 6SM -TSRA BKN050CB
     FM010300 VRB02KT 6SM -SHRA BR BKN015 OVC040
     FM010600 24002KT 2SM -DZ SCT004 OVC007
     FM011300 30006KT 4SM BR SCT007 BKN015
     FM011500 30008KT P6SM SCT015=

USA.gov is the U.S. government's official web portal to all federal, state and local government web resources and services.